createdAt,value
2018-10-04T00:01:11.592Z,43.35
2018-10-04T00:03:45.860Z,33.13
2018-10-04T00:06:20.151Z,26.45
2018-10-04T00:08:54.508Z,9.00
2018-10-04T00:11:28.857Z,9.50
2018-10-04T00:14:03.321Z,7.42
2018-10-04T00:16:37.664Z,5.17
2018-10-04T00:19:12.048Z,6.92
2018-10-04T00:21:46.692Z,9.58
2018-10-04T00:24:21.329Z,10.28
2018-10-04T00:26:55.873Z,7.90
2018-10-04T00:29:30.553Z,4.08
2018-10-04T00:32:05.026Z,6.53
2018-10-04T00:34:39.567Z,8.25
2018-10-04T00:37:14.000Z,4.87
2018-10-04T00:39:48.643Z,6.60
2018-10-04T00:42:23.096Z,4.03
2018-10-04T00:44:57.507Z,3.55
2018-10-04T00:47:32.202Z,6.08
2018-10-04T00:50:06.919Z,5.03
2018-10-04T00:52:41.445Z,3.83
2018-10-04T00:55:16.007Z,3.10
2018-10-04T00:57:50.656Z,3.20
2018-10-04T01:00:25.265Z,43.70
2018-10-04T01:02:59.802Z,25.00
2018-10-04T01:05:34.251Z,9.15
2018-10-04T01:08:08.843Z,15.75
2018-10-04T01:10:43.345Z,3.77
2018-10-04T01:13:17.782Z,4.83
2018-10-04T01:15:52.300Z,8.15
2018-10-04T01:18:38.193Z,5.67
2018-10-04T01:21:12.895Z,8.68
2018-10-04T01:23:47.463Z,3.15
2018-10-04T01:26:21.982Z,6.35
2018-10-04T01:28:56.394Z,3.65
2018-10-04T01:31:30.945Z,8.25
2018-10-04T01:34:05.529Z,4.05
2018-10-04T01:36:40.058Z,2.83
2018-10-04T01:39:14.658Z,8.23
2018-10-04T01:41:49.173Z,5.67
2018-10-04T01:44:23.887Z,4.15
2018-10-04T01:46:58.521Z,3.35
2018-10-04T01:49:33.034Z,5.35
2018-10-04T01:52:07.559Z,5.40
2018-10-04T01:54:42.024Z,5.53
2018-10-04T01:57:16.467Z,7.80
2018-10-04T01:59:51.020Z,10.13
2018-10-04T02:02:25.616Z,30.02
2018-10-04T02:05:00.159Z,37.45
2018-10-04T02:07:34.532Z,19.32
2018-10-04T02:10:08.960Z,12.33
2018-10-04T02:12:43.417Z,14.55
2018-10-04T02:15:17.955Z,3.15
2018-10-04T02:17:52.343Z,4.62
2018-10-04T02:20:26.723Z,4.37
2018-10-04T02:23:01.317Z,3.92
2018-10-04T02:25:35.968Z,3.12
2018-10-04T02:28:10.508Z,9.83
2018-10-04T02:30:44.866Z,2.40
2018-10-04T02:33:19.492Z,4.15
2018-10-04T02:35:53.991Z,4.22
2018-10-04T02:38:28.361Z,3.65
2018-10-04T02:41:03.212Z,6.05
2018-10-04T02:43:37.745Z,11.55
2018-10-04T02:46:12.369Z,4.42
2018-10-04T02:48:47.031Z,3.58
2018-10-04T02:51:21.439Z,5.62
2018-10-04T02:53:55.979Z,9.48
2018-10-04T02:56:35.990Z,3.65
2018-10-04T02:59:10.716Z,3.20
2018-10-04T03:01:45.202Z,23.30
2018-10-04T03:04:19.893Z,35.48
2018-10-04T03:06:54.427Z,33.40
2018-10-04T03:09:29.015Z,15.83
2018-10-04T03:12:03.411Z,13.38
2018-10-04T03:14:37.747Z,4.42
2018-10-04T03:17:12.163Z,3.10
2018-10-04T03:19:46.429Z,8.83
2018-10-04T03:22:20.703Z,2.30
2018-10-04T03:24:54.961Z,2.98
2018-10-04T03:27:29.457Z,4.20
2018-10-04T03:30:03.984Z,6.47
2018-10-04T03:32:38.257Z,5.50
2018-10-04T03:35:12.593Z,7.00
2018-10-04T03:37:46.986Z,3.35
2018-10-04T03:40:21.518Z,5.17
2018-10-04T03:42:55.989Z,4.05
2018-10-04T03:45:30.319Z,2.50
2018-10-04T03:48:05.002Z,3.98
2018-10-04T03:50:39.641Z,3.58
2018-10-04T03:53:14.218Z,3.42
2018-10-04T03:55:48.970Z,7.40
2018-10-04T03:58:23.647Z,7.87
2018-10-04T04:00:58.248Z,4.83
2018-10-04T04:03:32.608Z,7.45
2018-10-04T04:06:07.059Z,9.58
2018-10-04T04:08:41.480Z,37.33
2018-10-04T04:11:15.977Z,47.48
2018-10-04T04:13:50.613Z,16.05
2018-10-04T04:16:25.057Z,9.53
2018-10-04T04:18:59.579Z,2.50
2018-10-04T04:21:34.245Z,8.63
2018-10-04T04:24:08.793Z,3.85
2018-10-04T04:26:43.249Z,2.67
2018-10-04T04:29:17.632Z,4.97
2018-10-04T04:31:52.171Z,3.42
2018-10-04T04:34:26.780Z,5.90
2018-10-04T04:37:01.269Z,15.72
2018-10-04T04:39:35.647Z,7.35
2018-10-04T04:42:10.125Z,20.95
2018-10-04T04:44:44.644Z,15.30
2018-10-04T04:47:19.052Z,8.75
2018-10-04T04:49:53.695Z,7.67
2018-10-04T04:52:28.194Z,11.85
2018-10-04T04:55:25.782Z,9.70
2018-10-04T04:58:01.303Z,8.58
2018-10-04T05:00:36.853Z,4.92
2018-10-04T05:03:11.546Z,7.65
2018-10-04T05:05:46.072Z,43.33
2018-10-04T05:08:20.781Z,72.35
2018-10-04T05:10:55.306Z,50.50
2018-10-04T05:13:29.947Z,15.08
2018-10-04T05:16:04.517Z,7.45
2018-10-04T05:18:39.050Z,19.82
2018-10-04T05:21:13.456Z,10.80
2018-10-04T05:23:47.890Z,10.68
2018-10-04T05:26:22.555Z,14.60
2018-10-04T05:28:57.171Z,12.35
2018-10-04T05:31:31.827Z,10.38
2018-10-04T05:34:06.215Z,22.58
2018-10-04T05:36:40.723Z,189.13
2018-10-04T05:39:15.307Z,115.57
2018-10-04T05:41:49.732Z,86.28
2018-10-04T05:44:24.379Z,66.40
2018-10-04T05:46:58.881Z,83.47
2018-10-04T05:49:33.336Z,40.23
2018-10-04T05:52:08.055Z,15.93
2018-10-04T05:54:42.716Z,49.73
2018-10-04T05:57:17.111Z,6.60
2018-10-04T06:00:03.050Z,8.10
2018-10-04T06:02:37.389Z,13.53
2018-10-04T06:05:11.770Z,34.40
2018-10-04T06:07:46.206Z,54.48
2018-10-04T06:10:20.843Z,57.27
2018-10-04T06:12:55.447Z,35.88
2018-10-04T06:15:30.228Z,15.32
2018-10-04T06:18:04.707Z,10.20
2018-10-04T06:20:40.291Z,13.72
2018-10-04T06:23:14.894Z,3.50
2018-10-04T06:25:49.440Z,4.25
2018-10-04T06:28:23.853Z,4.20
2018-10-04T06:30:58.495Z,7.47
2018-10-04T06:33:32.904Z,2.72
2018-10-04T06:36:07.649Z,2.70
2018-10-04T06:38:42.086Z,2.33
2018-10-04T06:41:16.495Z,3.67
2018-10-04T06:43:51.082Z,6.65
2018-10-04T06:46:25.601Z,6.00
2018-10-04T06:49:00.031Z,3.12
2018-10-04T06:51:34.657Z,2.42
2018-10-04T06:54:09.278Z,2.85
2018-10-04T06:56:43.893Z,3.20
2018-10-04T06:59:18.609Z,2.75
2018-10-04T07:01:53.112Z,4.42
2018-10-04T07:04:27.647Z,3.77
2018-10-04T07:07:02.288Z,3.50
2018-10-04T07:09:36.686Z,39.73
2018-10-04T07:12:11.411Z,22.82
2018-10-04T07:14:45.800Z,23.42
2018-10-04T07:17:20.231Z,4.10
2018-10-04T07:19:54.753Z,2.75
2018-10-04T07:22:29.378Z,2.27
2018-10-04T07:25:03.907Z,6.12
2018-10-04T07:27:38.562Z,4.53
2018-10-04T07:30:13.103Z,3.52
2018-10-04T07:32:47.646Z,3.50
2018-10-04T07:35:22.220Z,3.50
2018-10-04T07:37:56.883Z,3.65
2018-10-04T07:40:31.275Z,6.10
2018-10-04T07:43:05.850Z,1.98
2018-10-04T07:45:40.436Z,5.25
2018-10-04T07:48:15.218Z,2.70
2018-10-04T07:50:49.773Z,7.58
2018-10-04T07:53:24.134Z,2.25
2018-10-04T07:55:58.579Z,2.70
2018-10-04T07:58:33.114Z,6.78
2018-10-04T08:01:08.081Z,5.72
2018-10-04T08:03:42.532Z,2.35
2018-10-04T08:06:17.251Z,2.72
2018-10-04T08:08:51.732Z,6.55
2018-10-04T08:11:26.209Z,21.00
2018-10-04T08:14:00.957Z,27.15
2018-10-04T08:16:35.791Z,17.02
2018-10-04T08:19:10.445Z,4.53
2018-10-04T08:21:45.173Z,2.77
2018-10-04T08:24:19.640Z,5.80
2018-10-04T08:26:54.240Z,3.20
2018-10-04T08:29:28.702Z,3.58
2018-10-04T08:32:03.259Z,9.88
2018-10-04T08:34:37.804Z,6.67
2018-10-04T08:37:12.375Z,8.85
2018-10-04T08:39:46.919Z,3.60
2018-10-04T08:42:21.340Z,2.50
2018-10-04T08:44:55.713Z,3.12
2018-10-04T08:47:30.239Z,3.60
2018-10-04T08:50:04.890Z,8.00
2018-10-04T08:52:44.933Z,5.53
2018-10-04T08:55:24.665Z,7.08
2018-10-04T08:57:59.378Z,3.17
2018-10-04T09:00:34.177Z,3.58
2018-10-04T09:03:08.696Z,4.80
2018-10-04T09:05:43.373Z,4.55
2018-10-04T09:08:18.067Z,33.70
2018-10-04T09:10:52.496Z,24.75
2018-10-04T09:13:27.114Z,22.27
2018-10-04T09:16:01.699Z,9.50
2018-10-04T09:18:36.204Z,10.63
2018-10-04T09:21:10.629Z,3.77
2018-10-04T09:23:45.146Z,2.27
2018-10-04T09:26:19.636Z,1.65
2018-10-04T09:28:59.492Z,2.55
2018-10-04T09:31:36.784Z,2.45
2018-10-04T09:34:11.374Z,4.30
2018-10-04T09:36:45.974Z,2.60
2018-10-04T09:39:20.427Z,2.58
2018-10-04T09:41:55.124Z,2.83
2018-10-04T09:44:29.560Z,1.98
2018-10-04T09:47:09.516Z,2.00
2018-10-04T09:49:43.994Z,3.65
2018-10-04T09:52:18.550Z,1.72
2018-10-04T09:54:58.585Z,1.70
2018-10-04T09:57:36.639Z,2.35
2018-10-04T10:00:17.382Z,1.77
2018-10-04T10:02:55.129Z,1.50
2018-10-04T10:05:29.773Z,2.58
2018-10-04T10:08:04.227Z,3.10
2018-10-04T10:10:38.740Z,2.25
2018-10-04T10:13:13.210Z,2.25
2018-10-04T10:15:47.828Z,2.40
2018-10-04T10:18:22.375Z,5.72
2018-10-04T10:20:57.003Z,5.33
2018-10-04T10:23:31.644Z,2.27
2018-10-04T10:26:06.244Z,2.17
2018-10-04T10:28:40.822Z,16.65
2018-10-04T10:31:15.265Z,14.28
2018-10-04T10:33:49.824Z,16.50
2018-10-04T10:36:24.260Z,19.40
2018-10-04T10:38:58.863Z,6.50
2018-10-04T10:41:33.439Z,9.28
2018-10-04T10:44:08.520Z,2.22
2018-10-04T10:46:43.027Z,2.65
2018-10-04T10:49:17.638Z,1.45
2018-10-04T10:51:52.195Z,3.20
2018-10-04T10:54:26.748Z,3.55
2018-10-04T10:57:01.321Z,4.12
2018-10-04T10:59:35.781Z,2.35
2018-10-04T11:02:10.396Z,2.00
2018-10-04T11:04:44.984Z,3.58
2018-10-04T11:07:19.527Z,2.42
2018-10-04T11:09:54.023Z,6.42
2018-10-04T11:12:28.631Z,4.15
2018-10-04T11:15:03.296Z,1.57
2018-10-04T11:17:37.808Z,7.30
2018-10-04T11:20:12.355Z,8.03
2018-10-04T11:22:46.716Z,2.92
2018-10-04T11:25:21.388Z,3.95
2018-10-04T11:27:55.915Z,3.22
2018-10-04T11:30:30.447Z,5.65
2018-10-04T11:33:05.069Z,13.32
2018-10-04T11:35:39.471Z,17.75
2018-10-04T11:38:13.980Z,19.55
2018-10-04T11:40:48.613Z,12.13
2018-10-04T11:43:24.962Z,3.27
2018-10-04T11:46:01.025Z,5.85
2018-10-04T11:48:37.062Z,2.67
2018-10-04T11:51:11.471Z,2.70
2018-10-04T11:53:46.446Z,2.87
2018-10-04T11:56:20.952Z,4.72
2018-10-04T11:58:55.503Z,5.30
2018-10-04T12:01:29.935Z,2.70
2018-10-04T12:04:04.255Z,2.85
2018-10-04T12:06:38.900Z,4.53
2018-10-04T12:09:13.341Z,4.28
2018-10-04T12:11:47.845Z,7.83
2018-10-04T12:14:22.368Z,2.90
2018-10-04T12:16:56.889Z,2.85
2018-10-04T12:19:31.312Z,4.97
2018-10-04T12:22:05.858Z,2.65
2018-10-04T12:24:40.301Z,3.52
2018-10-04T12:27:15.010Z,4.53
2018-10-04T12:29:49.401Z,3.00
2018-10-04T12:32:23.870Z,4.45
2018-10-04T12:34:58.379Z,15.95
2018-10-04T12:37:32.988Z,23.25
2018-10-04T12:40:07.651Z,30.52
2018-10-04T12:42:42.175Z,10.53
2018-10-04T12:45:16.804Z,9.00
2018-10-04T12:47:51.152Z,2.75
2018-10-04T12:50:25.810Z,2.25
2018-10-04T12:53:00.285Z,2.42
2018-10-04T12:55:34.746Z,2.40
2018-10-04T12:58:09.188Z,2.10
2018-10-04T13:00:43.580Z,1.80
2018-10-04T13:03:18.158Z,5.22
2018-10-04T13:05:52.740Z,4.78
2018-10-04T13:08:27.391Z,2.72
2018-10-04T13:11:01.709Z,2.67
2018-10-04T13:13:36.229Z,4.55
2018-10-04T13:16:10.551Z,2.98
2018-10-04T13:18:44.957Z,4.25
2018-10-04T13:21:19.564Z,3.35
2018-10-04T13:23:54.109Z,2.60
2018-10-04T13:26:28.753Z,2.60
2018-10-04T13:29:03.306Z,2.90
2018-10-04T13:31:37.820Z,3.17
2018-10-04T13:34:12.412Z,3.83
2018-10-04T13:36:47.019Z,12.40
2018-10-04T13:39:21.517Z,10.30
2018-10-04T13:41:56.065Z,43.40
2018-10-04T13:44:30.639Z,21.07
2018-10-04T13:47:05.238Z,10.90
2018-10-04T13:49:39.810Z,3.95
2018-10-04T13:52:14.283Z,5.65
2018-10-04T13:54:48.829Z,5.08
2018-10-04T13:57:23.437Z,9.40
2018-10-04T13:59:58.061Z,3.40
2018-10-04T14:02:32.730Z,4.65
2018-10-04T14:05:07.112Z,3.45
2018-10-04T14:07:41.788Z,6.65
2018-10-04T14:10:16.330Z,6.65
2018-10-04T14:12:50.790Z,3.17
2018-10-04T14:15:25.211Z,3.37
2018-10-04T14:17:59.668Z,6.25
2018-10-04T14:20:33.976Z,2.92
2018-10-04T14:23:08.573Z,4.97
2018-10-04T14:25:43.052Z,5.58
2018-10-04T14:28:17.559Z,7.35
2018-10-04T14:30:52.110Z,5.10
2018-10-04T14:33:26.731Z,3.70
2018-10-04T14:36:01.175Z,8.48
2018-10-04T14:38:35.679Z,11.90
2018-10-04T14:41:10.255Z,22.35
2018-10-04T14:43:44.855Z,27.22
2018-10-04T14:46:19.896Z,15.93
2018-10-04T14:48:54.421Z,6.65
2018-10-04T14:51:28.955Z,8.85
2018-10-04T14:54:03.355Z,9.03
2018-10-04T14:56:38.006Z,7.58
2018-10-04T14:59:12.552Z,11.30
2018-10-04T15:01:47.145Z,9.73
2018-10-04T15:04:21.540Z,5.65
2018-10-04T15:06:56.164Z,5.78
2018-10-04T15:09:30.844Z,9.70
2018-10-04T15:12:05.328Z,10.23
2018-10-04T15:14:39.986Z,4.03
2018-10-04T15:17:14.600Z,10.98
2018-10-04T15:19:49.136Z,9.25
2018-10-04T15:22:23.828Z,7.70
2018-10-04T15:24:58.221Z,6.35
2018-10-04T15:27:32.772Z,9.38
2018-10-04T15:30:08.070Z,6.50
2018-10-04T15:32:42.598Z,5.92
2018-10-04T15:35:17.158Z,6.58
2018-10-04T15:37:51.853Z,5.85
2018-10-04T15:40:26.328Z,34.40
2018-10-04T15:43:01.235Z,25.40
2018-10-04T15:45:35.898Z,30.55
2018-10-04T15:48:10.359Z,13.05
2018-10-04T15:50:44.933Z,14.18
2018-10-04T15:53:19.600Z,13.22
2018-10-04T15:55:54.141Z,8.93
2018-10-04T15:58:28.703Z,11.55
2018-10-04T16:01:03.232Z,9.75
2018-10-04T16:03:37.964Z,7.53
2018-10-04T16:06:12.529Z,7.60
2018-10-04T16:08:47.081Z,11.75
2018-10-04T16:11:21.740Z,6.95
2018-10-04T16:13:56.401Z,15.70
2018-10-04T16:16:30.831Z,10.40
2018-10-04T16:19:05.577Z,13.60
2018-10-04T16:21:40.054Z,8.65
2018-10-04T16:24:14.533Z,6.50
2018-10-04T16:26:49.134Z,13.35
2018-10-04T16:29:23.607Z,9.63
2018-10-04T16:31:58.062Z,11.03
2018-10-04T16:34:32.584Z,9.10
2018-10-04T16:37:07.125Z,11.05
2018-10-04T16:39:41.685Z,9.78
2018-10-04T16:42:16.288Z,7.78
2018-10-04T16:44:50.893Z,10.85
2018-10-04T16:47:25.468Z,18.00
2018-10-04T16:50:00.086Z,48.02
2018-10-04T16:52:34.646Z,29.80
2018-10-04T16:55:09.195Z,18.52
2018-10-04T16:57:43.786Z,10.30
2018-10-04T17:00:18.406Z,10.00
2018-10-04T17:02:53.033Z,7.05
2018-10-04T17:05:27.517Z,10.72
2018-10-04T17:08:01.780Z,11.12
2018-10-04T17:10:36.357Z,10.88
2018-10-04T17:13:10.838Z,12.53
2018-10-04T17:15:45.399Z,15.03
2018-10-04T17:18:19.795Z,12.60
2018-10-04T17:20:54.361Z,16.93
2018-10-04T17:23:31.206Z,15.78
2018-10-04T17:26:06.069Z,16.17
2018-10-04T17:28:40.723Z,11.20
2018-10-04T17:31:15.368Z,13.38
2018-10-04T17:33:49.845Z,14.55
2018-10-04T17:36:24.721Z,13.20
2018-10-04T17:38:59.159Z,11.68
2018-10-04T17:41:33.711Z,10.45
2018-10-04T17:44:08.364Z,13.88
2018-10-04T17:46:42.741Z,18.32
2018-10-04T17:49:17.217Z,33.23
2018-10-04T17:51:51.652Z,117.75
2018-10-04T17:54:26.096Z,29.57
2018-10-04T17:57:00.384Z,39.10
2018-10-04T17:59:34.831Z,17.02
2018-10-04T18:02:09.237Z,13.40
2018-10-04T18:04:44.896Z,15.63
2018-10-04T18:07:19.314Z,13.90
2018-10-04T18:09:53.598Z,15.35
2018-10-04T18:12:28.067Z,12.85
2018-10-04T18:15:02.359Z,12.80
2018-10-04T18:17:37.258Z,16.30
2018-10-04T18:20:12.507Z,13.43
2018-10-04T18:22:48.503Z,13.28
2018-10-04T18:25:22.835Z,12.75
2018-10-04T18:27:57.296Z,12.45
2018-10-04T18:30:31.680Z,19.55
2018-10-04T18:33:06.107Z,12.80
2018-10-04T18:35:40.695Z,17.37
2018-10-04T18:38:14.979Z,16.27
2018-10-04T18:40:50.893Z,12.10
2018-10-04T18:43:25.478Z,14.30
2018-10-04T18:46:00.400Z,17.20
2018-10-04T18:48:34.887Z,40.80
2018-10-04T18:51:09.221Z,48.80
2018-10-04T18:53:43.780Z,41.90
2018-10-04T18:56:18.670Z,24.10
2018-10-04T18:58:53.163Z,17.05
2018-10-04T19:01:27.661Z,20.50
2018-10-04T19:04:02.191Z,17.10
2018-10-04T19:06:36.455Z,14.23
2018-10-04T19:09:10.852Z,14.25
2018-10-04T19:11:45.269Z,17.12
2018-10-04T19:14:19.556Z,20.68
2018-10-04T19:16:53.995Z,13.25
2018-10-04T19:19:28.357Z,17.62
2018-10-04T19:22:02.675Z,67.78
2018-10-04T19:24:37.011Z,47.05
2018-10-04T19:27:11.389Z,28.40
2018-10-04T19:29:45.793Z,24.85
2018-10-04T19:32:20.300Z,22.10
2018-10-04T19:34:54.579Z,18.90
2018-10-04T19:37:29.016Z,18.48
2018-10-04T19:40:03.456Z,42.40
2018-10-04T19:42:37.797Z,38.58
2018-10-04T19:45:12.128Z,38.17
2018-10-04T19:47:46.537Z,63.65
2018-10-04T19:50:20.901Z,135.93
2018-10-04T19:52:55.192Z,135.75
2018-10-04T19:55:29.541Z,100.30
2018-10-04T19:58:03.784Z,81.47
2018-10-04T20:00:38.057Z,75.80
2018-10-04T20:03:12.389Z,38.25
2018-10-04T20:05:46.698Z,27.65
2018-10-04T20:08:21.129Z,26.25
2018-10-04T20:10:55.496Z,22.15
2018-10-04T20:13:29.779Z,18.37
2018-10-04T20:16:04.366Z,14.75
2018-10-04T20:18:38.800Z,18.55
2018-10-04T20:21:13.361Z,12.55
2018-10-04T20:23:47.835Z,15.38
2018-10-04T20:26:22.238Z,11.45
2018-10-04T20:28:56.572Z,11.50
2018-10-04T20:31:30.979Z,10.05
2018-10-04T20:34:05.419Z,10.48
2018-10-04T20:36:39.875Z,10.20
2018-10-04T20:39:14.296Z,9.10
2018-10-04T20:41:48.712Z,19.32
2018-10-04T20:44:23.337Z,12.73
2018-10-04T20:46:57.884Z,15.78
2018-10-04T20:49:32.332Z,13.13
2018-10-04T20:52:06.785Z,26.20
2018-10-04T20:54:41.427Z,34.10
2018-10-04T20:57:16.052Z,34.95
2018-10-04T20:59:50.607Z,38.50
2018-10-04T21:02:25.164Z,11.38
2018-10-04T21:04:59.669Z,21.33
2018-10-04T21:07:34.144Z,12.98
2018-10-04T21:10:08.459Z,12.85
2018-10-04T21:12:43.135Z,12.35
2018-10-04T21:15:17.489Z,16.25
2018-10-04T21:17:51.815Z,14.00
2018-10-04T21:20:26.089Z,12.03
2018-10-04T21:23:00.393Z,10.93
2018-10-04T21:25:34.784Z,21.65
2018-10-04T21:28:09.303Z,8.23
2018-10-04T21:30:43.848Z,10.48
2018-10-04T21:33:18.388Z,10.90
2018-10-04T21:35:52.878Z,11.05
2018-10-04T21:38:27.376Z,13.85
2018-10-04T21:41:02.032Z,10.63
2018-10-04T21:43:36.446Z,13.83
2018-10-04T21:46:10.853Z,10.53
2018-10-04T21:48:45.430Z,18.48
2018-10-04T21:51:19.895Z,16.60
2018-10-04T21:53:54.333Z,10.28
2018-10-04T21:56:28.940Z,17.55
2018-10-04T21:59:03.616Z,32.67
2018-10-04T22:01:38.117Z,94.72
2018-10-04T22:04:12.656Z,39.38
2018-10-04T22:06:47.117Z,20.65
2018-10-04T22:09:21.564Z,16.55
2018-10-04T22:11:55.937Z,10.95
2018-10-04T22:14:30.272Z,15.03
2018-10-04T22:17:04.580Z,14.00
2018-10-04T22:19:38.999Z,10.98
2018-10-04T22:22:13.335Z,10.05
2018-10-04T22:24:47.570Z,11.08
2018-10-04T22:27:21.829Z,8.35
2018-10-04T22:29:56.239Z,9.98
2018-10-04T22:32:30.542Z,11.30
2018-10-04T22:35:04.887Z,8.65
2018-10-04T22:37:39.165Z,13.32
2018-10-04T22:40:13.576Z,12.10
2018-10-04T22:42:47.849Z,10.85
2018-10-04T22:45:22.151Z,14.00
2018-10-04T22:47:56.648Z,10.43
2018-10-04T22:50:31.145Z,12.73
2018-10-04T22:53:05.615Z,21.45
2018-10-04T22:55:40.189Z,12.70
2018-10-04T22:58:14.680Z,37.05
2018-10-04T23:00:49.078Z,30.27
2018-10-04T23:03:23.612Z,37.90
2018-10-04T23:05:58.258Z,25.50
2018-10-04T23:08:32.787Z,20.25
2018-10-04T23:11:07.398Z,15.30
2018-10-04T23:13:41.994Z,12.20
2018-10-04T23:16:16.648Z,13.88
2018-10-04T23:18:51.251Z,17.07
2018-10-04T23:21:25.753Z,11.88
2018-10-04T23:24:00.249Z,17.00
2018-10-04T23:26:34.577Z,13.35
2018-10-04T23:29:08.936Z,11.12
2018-10-04T23:31:43.383Z,13.10
2018-10-04T23:34:18.049Z,8.83
2018-10-04T23:36:52.495Z,14.13
2018-10-04T23:39:26.984Z,15.25
2018-10-04T23:42:01.459Z,10.82
2018-10-04T23:44:35.835Z,13.40
2018-10-04T23:47:10.241Z,15.13
2018-10-04T23:49:44.609Z,16.55
2018-10-04T23:52:19.141Z,12.43
2018-10-04T23:54:53.734Z,13.20
2018-10-04T23:57:28.411Z,10.53
